Time;durP1;ratioP1;P1;durP2;ratioP2;P2;SDS_P1;SDS_P2;PMS_P1;PMS_P2;Temp;Humidity;BMP_temperature;BMP_pressure;BME280_temperature;BME280_humidity;BME280_pressure;Samples;Min_cycle;Max_cycle;Signal;HPM_P1;HPM_P2
2022/10/06 00:02:18;;;;;;;5.33;3.30;;;;;;;10.83;82.09;99264.81;1694100;84;25901;-57
2022/10/06 00:04:46;;;;;;;7.28;3.37;;;;;;;10.85;81.70;99269.44;1694007;84;25679;-57
2022/10/06 00:07:12;;;;;;;4.60;3.20;;;;;;;10.90;81.98;99276.19;1694319;84;26545;-57
2022/10/06 00:09:39;;;;;;;4.90;3.45;;;;;;;10.94;81.67;99268.98;1694352;84;25490;-57
2022/10/06 00:12:06;;;;;;;5.45;3.12;;;;;;;10.97;81.53;99273.87;1694146;84;28366;-57
2022/10/06 00:14:32;;;;;;;7.35;2.92;;;;;;;11.00;81.55;99278.75;1693905;84;25497;-57
2022/10/06 00:16:58;;;;;;;5.30;2.87;;;;;;;11.05;81.63;99286.08;1694101;84;25643;-57
2022/10/06 00:19:24;;;;;;;4.80;2.98;;;;;;;11.06;81.50;99286.35;1694026;84;25679;-57
2022/10/06 00:21:51;;;;;;;4.42;3.00;;;;;;;11.04;81.56;99294.88;1694438;84;25498;-57
2022/10/06 00:24:17;;;;;;;5.42;3.10;;;;;;;11.03;81.84;99297.92;1694385;84;27596;-58
2022/10/06 00:26:46;;;;;;;6.00;2.90;;;;;;;11.02;81.66;99295.73;1694141;84;25730;-57
2022/10/06 00:29:13;;;;;;;5.15;2.95;;;;;;;11.00;81.87;99297.16;1694275;84;25675;-57
2022/10/06 00:31:40;;;;;;;6.20;3.33;;;;;;;11.00;81.76;99299.89;1694367;84;25683;-57
2022/10/06 00:34:06;;;;;;;7.70;2.90;;;;;;;10.99;81.92;99297.70;1694313;84;25454;-58
2022/10/06 00:36:33;;;;;;;4.00;2.70;;;;;;;11.04;81.77;99301.73;1694197;84;27239;-58
2022/10/06 00:38:59;;;;;;;6.33;2.83;;;;;;;11.09;81.95;99304.12;1694089;84;25955;-57
2022/10/06 00:41:25;;;;;;;5.05;2.30;;;;;;;11.15;81.70;99305.12;1694419;84;25466;-57
2022/10/06 00:43:55;;;;;;;4.05;2.45;;;;;;;11.21;82.00;99300.89;1694551;84;25922;-57
2022/10/06 00:46:45;;;;;;;3.72;2.60;;;;;;;11.29;81.51;99298.26;1694744;84;25898;-58
2022/10/06 00:49:30;;;;;;;5.67;2.55;;;;;;;11.34;81.87;99297.35;1693827;84;27592;-57
2022/10/06 00:52:04;;;;;;;5.28;3.12;;;;;;;11.38;81.60;99304.43;1694668;84;25687;-58
2022/10/06 00:54:33;;;;;;;3.50;2.70;;;;;;;11.39;81.53;99308.80;1693504;84;25680;-58
2022/10/06 00:56:59;;;;;;;4.72;2.90;;;;;;;11.38;81.50;99306.63;1694365;84;26399;-57
2022/10/06 00:59:26;;;;;;;5.22;2.55;;;;;;;11.38;82.07;99299.77;1700882;83;25602;-58
2022/10/06 01:02:06;;;;;;;5.70;2.47;;;;;;;11.42;81.48;99299.95;1702064;84;27446;-58
2022/10/06 01:04:36;;;;;;;4.03;2.70;;;;;;;11.48;81.38;99304.78;1701546;84;25654;-58
2022/10/06 01:07:03;;;;;;;4.90;2.55;;;;;;;11.53;81.02;99300.03;1702189;84;25482;-58
2022/10/06 01:09:30;;;;;;;4.55;2.40;;;;;;;11.58;80.81;99303.23;1702121;84;25930;-57
2022/10/06 01:12:01;;;;;;;4.05;2.72;;;;;;;11.64;80.78;99297.08;1701846;84;25417;-57
2022/10/06 01:14:27;;;;;;;3.65;2.60;;;;;;;11.71;80.45;99297.47;1702045;84;27606;-57
2022/10/06 01:17:13;;;;;;;4.30;2.25;;;;;;;11.76;80.27;99291.06;1701759;84;25617;-57
2022/10/06 01:20:03;;;;;;;4.80;2.85;;;;;;;11.78;80.19;99307.48;1701806;84;25655;-57
2022/10/06 01:22:43;;;;;;;4.62;2.83;;;;;;;11.77;80.24;99296.80;1701960;84;26889;-58
2022/10/06 01:25:14;;;;;;;6.55;2.95;;;;;;;11.76;80.12;99300.13;1700971;83;25613;-57
2022/10/06 01:27:52;;;;;;;2.77;2.35;;;;;;;11.76;80.11;99295.19;1730419;82;27395;-57
2022/10/06 01:30:24;;;;;;;2.83;2.08;;;;;;;11.78;80.06;99306.69;1730344;82;25478;-57
2022/10/06 01:32:50;;;;;;;2.45;2.25;;;;;;;11.83;79.88;99309.31;1730277;82;25609;-58
2022/10/06 01:35:17;;;;;;;3.30;2.37;;;;;;;11.87;79.67;99304.03;1731352;82;25723;-58
2022/10/06 01:37:43;;;;;;;4.65;2.50;;;;;;;11.91;79.52;99301.73;1731388;82;25479;-58
2022/10/06 01:40:10;;;;;;;3.70;2.42;;;;;;;11.95;79.38;99308.81;1731312;82;27528;-57
2022/10/06 01:42:36;;;;;;;3.80;2.30;;;;;;;11.96;79.34;99305.48;1730902;82;27193;-57
2022/10/06 01:45:04;;;;;;;5.55;2.75;;;;;;;11.95;79.44;99303.88;1731050;82;25519;-57
2022/10/06 01:47:32;;;;;;;3.95;2.72;;;;;;;11.92;79.32;99303.94;1731274;82;25809;-58
2022/10/06 01:49:58;;;;;;;4.33;2.62;;;;;;;11.91;79.38;99303.66;1731242;82;25661;-57
2022/10/06 01:52:26;;;;;;;4.12;2.55;;;;;;;11.91;79.35;99299.55;1730837;82;27340;-58
2022/10/06 01:54:53;;;;;;;6.62;3.30;;;;;;;11.91;79.23;99294.88;1730809;82;25618;-57
2022/10/06 01:57:20;;;;;;;4.33;2.20;;;;;;;11.94;79.10;99294.81;1730908;82;25714;-59
2022/10/06 01:59:46;;;;;;;4.10;2.22;;;;;;;11.98;79.05;99297.22;1723870;81;26960;-57
2022/10/06 02:02:12;;;;;;;2.75;2.15;;;;;;;12.00;78.98;99296.91;1723606;83;25626;-58
2022/10/06 02:04:39;;;;;;;5.67;3.30;;;;;;;12.00;78.83;99301.03;1723439;82;28219;-58
2022/10/06 02:07:06;;;;;;;4.12;2.42;;;;;;;12.02;78.77;99302.89;1723279;83;25670;-58
2022/10/06 02:09:32;;;;;;;5.05;2.85;;;;;;;12.01;78.82;99300.69;1723113;83;25432;-58
2022/10/06 02:11:58;;;;;;;4.22;2.83;;;;;;;11.98;78.83;99304.08;1723547;82;25815;-58
2022/10/06 02:14:24;;;;;;;5.03;2.87;;;;;;;11.96;78.95;99301.38;1723129;83;25716;-58
2022/10/06 02:16:50;;;;;;;4.60;2.50;;;;;;;11.93;79.03;99301.44;1723479;82;28264;-59
2022/10/06 02:19:17;;;;;;;6.28;3.05;;;;;;;11.92;78.94;99298.44;1722953;83;27216;-58
2022/10/06 02:21:43;;;;;;;4.30;2.65;;;;;;;11.91;78.95;99304.48;1723113;83;25705;-58
2022/10/06 02:24:09;;;;;;;6.12;2.85;;;;;;;11.91;78.95;99298.99;1723449;82;25699;-58
2022/10/06 02:26:35;;;;;;;4.87;2.77;;;;;;;11.90;79.04;99296.00;1723121;83;25666;-58
2022/10/06 02:29:02;;;;;;;5.85;3.52;;;;;;;11.90;78.99;99308.36;1723112;82;27339;-58
2022/10/06 02:31:28;;;;;;;4.00;3.02;;;;;;;11.91;78.88;99313.27;1723607;82;25615;-58
2022/10/06 02:33:54;;;;;;;5.22;3.12;;;;;;;11.88;79.06;99310.59;1723156;83;25661;-57
2022/10/06 02:36:21;;;;;;;6.53;3.37;;;;;;;11.83;79.16;99307.14;1723560;82;25792;-58
2022/10/06 02:38:47;;;;;;;4.90;2.90;;;;;;;11.78;79.18;99319.84;1723465;83;25672;-57
2022/10/06 02:41:13;;;;;;;5.28;2.75;;;;;;;11.73;79.43;99309.52;1723606;82;27606;-57
2022/10/06 02:43:39;;;;;;;7.28;3.50;;;;;;;11.67;79.78;99311.02;1723335;83;25654;-57
2022/10/06 02:46:11;;;;;;;7.37;3.02;;;;;;;11.65;79.54;99313.79;1723058;83;25609;-57
2022/10/06 02:48:39;;;;;;;6.33;3.77;;;;;;;11.65;79.51;99317.91;1722270;83;27829;-57
2022/10/06 02:51:15;;;;;;;7.15;3.67;;;;;;;11.64;79.46;99314.92;1723127;83;25601;-58
2022/10/06 02:53:44;;;;;;;7.15;3.42;;;;;;;11.62;79.57;99317.14;1723352;83;27387;-57
2022/10/06 02:56:18;;;;;;;6.47;3.47;;;;;;;11.60;79.51;99315.28;1723449;83;25590;-57
2022/10/06 02:58:44;;;;;;;9.18;3.70;;;;;;;11.59;79.46;99321.88;1724506;82;25447;-57
2022/10/06 03:01:14;;;;;;;9.35;4.45;;;;;;;11.55;79.64;99325.80;1730734;82;25749;-58
2022/10/06 03:03:41;;;;;;;6.78;3.95;;;;;;;11.50;79.73;99327.26;1731448;82;25653;-57
2022/10/06 03:06:20;;;;;;;8.00;3.87;;;;;;;11.45;79.71;99324.05;1730822;82;27407;-57
2022/10/06 03:09:05;;;;;;;7.80;4.70;;;;;;;11.37;79.87;99324.77;1731121;82;25648;-57
2022/10/06 03:11:36;;;;;;;9.65;4.87;;;;;;;11.28;80.01;99327.37;1731150;82;25427;-57
2022/10/06 03:14:02;;;;;;;;;;;;;;;11.23;80.04;99328.85;1733361;82;25779;-58
2022/10/06 03:16:33;;;;;;;10.40;5.50;;;;;;;11.19;80.08;99331.95;1731244;82;25708;-58
2022/10/06 03:19:00;;;;;;;7.80;4.42;;;;;;;11.14;80.21;99324.63;1731328;82;27384;-58
2022/10/06 03:21:33;;;;;;;8.53;4.87;;;;;;;11.11;80.22;99326.02;1731001;82;25690;-57
2022/10/06 03:24:01;;;;;;;10.10;5.10;;;;;;;11.09;80.45;99321.95;1731210;82;25664;-58
2022/10/06 03:26:31;;;;;;;7.72;4.90;;;;;;;11.09;80.54;99328.81;1730860;82;25784;-58
2022/10/06 03:28:57;;;;;;;8.45;4.75;;;;;;;11.11;80.34;99327.97;1731410;82;25665;-58
2022/10/06 03:31:25;;;;;;;10.38;5.12;;;;;;;11.11;80.25;99332.08;1731235;81;28183;-57
2022/10/06 03:33:54;;;;;;;9.10;5.10;;;;;;;11.06;80.44;99331.61;1730893;82;25585;-58
2022/10/06 03:36:22;;;;;;;9.25;5.30;;;;;;;10.99;80.46;99325.67;1731077;82;25714;-57
2022/10/06 03:38:49;;;;;;;9.58;5.12;;;;;;;10.95;80.71;99324.66;1731197;82;25656;-58
2022/10/06 03:41:20;;;;;;;9.78;5.97;;;;;;;10.86;80.86;99325.35;1730964;82;25717;-58
2022/10/06 03:43:49;;;;;;;7.20;4.70;;;;;;;10.79;81.18;99324.34;1730627;82;27463;-58
2022/10/06 03:46:25;;;;;;;8.85;4.28;;;;;;;10.76;81.04;99322.20;1731021;82;25771;-58
2022/10/06 03:48:52;;;;;;;7.42;4.42;;;;;;;10.75;81.27;99327.44;1731119;82;25710;-58
2022/10/06 03:51:26;;;;;;;10.35;4.55;;;;;;;10.73;81.86;99327.45;1731098;82;25719;-58
2022/10/06 03:53:53;;;;;;;9.10;4.40;;;;;;;10.73;81.42;99330.20;1731160;82;25569;-56
2022/10/06 03:56:27;;;;;;;7.05;4.47;;;;;;;10.72;81.49;99329.41;1730945;82;28224;-56
2022/10/06 03:59:00;;;;;;;6.58;4.35;;;;;;;10.73;81.46;99324.72;1728200;82;25825;-56
2022/10/06 04:01:31;;;;;;;8.73;5.12;;;;;;;10.73;81.49;99328.28;1722992;82;25448;-56
2022/10/06 04:03:59;;;;;;;11.28;5.42;;;;;;;10.75;81.44;99332.09;1723375;83;26693;-56
2022/10/06 04:06:28;;;;;;;13.83;6.50;;;;;;;10.73;81.46;99331.57;1723347;82;25448;-56
2022/10/06 04:08:55;;;;;;;12.93;5.45;;;;;;;10.72;81.58;99332.69;1723336;82;27057;-55
2022/10/06 04:11:26;;;;;;;9.50;5.05;;;;;;;10.69;81.46;99331.92;1723157;83;25456;-56
2022/10/06 04:14:00;;;;;;;8.15;4.65;;;;;;;10.61;81.75;99332.86;1723061;82;25633;-55
2022/10/06 04:16:38;;;;;;;8.60;4.37;;;;;;;10.57;81.89;99339.23;1723136;82;25559;-56
2022/10/06 04:19:08;;;;;;;10.55;4.80;;;;;;;10.51;81.95;99341.23;1723473;83;25468;-59
2022/10/06 04:21:37;;;;;;;7.67;4.20;;;;;;;10.47;82.07;99353.33;1723675;83;27440;-56
2022/10/06 04:24:10;;;;;;;7.97;4.62;;;;;;;10.45;82.25;99350.03;1723553;82;25475;-59
2022/10/06 04:26:40;;;;;;;8.80;4.33;;;;;;;10.44;82.29;99359.91;1723175;83;25427;-57
2022/10/06 04:29:07;;;;;;;9.90;4.40;;;;;;;10.46;82.30;99362.67;1723686;83;25686;-57
2022/10/06 04:31:37;;;;;;;6.33;4.85;;;;;;;10.48;82.42;99353.58;1723231;82;25817;-57
2022/10/06 04:34:06;;;;;;;8.78;4.80;;;;;;;10.52;82.63;99352.45;1723704;83;28039;-57
2022/10/06 04:36:39;;;;;;;8.48;4.47;;;;;;;10.57;82.49;99355.67;1723494;83;25714;-57
2022/10/06 04:39:09;;;;;;;7.25;4.25;;;;;;;10.60;82.50;99350.42;1723142;83;25664;-58
2022/10/06 04:41:39;;;;;;;6.70;3.97;;;;;;;10.61;82.77;99347.93;1723639;82;25730;-58
2022/10/06 04:44:07;;;;;;;6.60;3.77;;;;;;;10.62;82.65;99352.86;1723471;82;25428;-58
2022/10/06 04:46:34;;;;;;;8.15;3.50;;;;;;;10.62;82.71;99355.61;1723405;83;27493;-58
2022/10/06 04:49:01;;;;;;;11.15;5.25;;;;;;;10.62;82.81;99356.98;1723083;83;25710;-58
2022/10/06 04:51:27;;;;;;;18.20;10.32;;;;;;;10.62;82.84;99358.34;1723375;83;25638;-57
2022/10/06 04:53:54;;;;;;;10.60;6.62;;;;;;;10.64;82.77;99362.95;1723368;82;26118;-58
2022/10/06 04:56:29;;;;;;;10.30;4.90;;;;;;;10.66;82.64;99367.05;1723169;83;25627;-58
2022/10/06 04:58:56;;;;;;;6.72;4.37;;;;;;;10.70;82.53;99376.02;1723516;82;27866;-58
2022/10/06 05:01:28;;;;;;;8.40;5.25;;;;;;;10.73;82.54;99380.91;1723358;82;25908;-58
2022/10/06 05:03:57;;;;;;;9.15;5.03;;;;;;;10.77;82.50;99381.97;1723553;83;25609;-60
2022/10/06 05:06:29;;;;;;;6.05;3.50;;;;;;;10.78;82.59;99366.59;1723607;82;26386;-58
2022/10/06 05:08:59;;;;;;;5.67;3.92;;;;;;;10.79;82.74;99372.88;1723616;82;25661;-58
2022/10/06 05:11:25;;;;;;;7.90;4.40;;;;;;;10.77;82.67;99377.86;1723317;83;27386;-58
2022/10/06 05:13:55;;;;;;;10.48;5.40;;;;;;;10.76;82.82;99380.32;1723073;83;25628;-58
2022/10/06 05:16:23;;;;;;;12.70;6.45;;;;;;;10.73;82.67;99374.89;1723550;83;25755;-58
2022/10/06 05:18:50;;;;;;;8.48;4.80;;;;;;;10.72;82.76;99385.60;1723464;83;26407;-58
2022/10/06 05:21:23;;;;;;;8.78;4.53;;;;;;;10.73;82.73;99384.48;1723351;83;25596;-58
2022/10/06 05:23:49;;;;;;;7.58;4.92;;;;;;;10.76;82.66;99388.00;1723168;82;27586;-59
2022/10/06 05:26:21;;;;;;;8.65;4.72;;;;;;;10.81;82.52;99387.66;1723046;83;25657;-58
2022/10/06 05:28:48;;;;;;;7.17;4.50;;;;;;;10.85;82.56;99388.14;1723401;83;25590;-58
2022/10/06 05:31:19;;;;;;;11.22;4.75;;;;;;;10.88;82.55;99401.25;1723357;82;26671;-58
2022/10/06 05:33:46;;;;;;;6.95;4.50;;;;;;;10.94;82.55;99396.50;1723629;83;31486;-57
2022/10/06 05:36:16;;;;;;;9.58;4.30;;;;;;;10.98;82.59;99401.67;1723061;83;27448;-58
2022/10/06 05:38:43;;;;;;;5.30;4.27;;;;;;;11.02;82.45;99402.69;1723613;83;25625;-58
2022/10/06 05:41:29;;;;;;;8.43;4.20;;;;;;;11.05;82.60;99404.02;1723430;83;25653;-58
2022/10/06 05:43:57;;;;;;;6.78;4.37;;;;;;;11.08;82.56;99402.62;1723496;82;25704;-57
2022/10/06 05:46:27;;;;;;;6.87;3.92;;;;;;;11.12;82.51;99409.13;1723435;83;25479;-59
2022/10/06 05:48:56;;;;;;;7.30;4.37;;;;;;;11.11;82.74;99413.80;1723770;83;27507;-57
2022/10/06 05:51:26;;;;;;;8.93;4.72;;;;;;;11.13;82.76;99423.09;1723307;82;25744;-59
2022/10/06 05:54:01;;;;;;;14.60;4.57;;;;;;;11.18;82.67;99429.88;1723668;83;25452;-58
2022/10/06 05:56:31;;;;;;;6.22;4.60;;;;;;;11.24;82.83;99440.21;1723289;83;25829;-57
2022/10/06 05:58:59;;;;;;;8.08;4.75;;;;;;;11.35;82.66;99439.50;1722993;82;25665;-58
2022/10/06 06:01:42;;;;;;;8.58;4.08;;;;;;;11.46;82.49;99446.45;1723355;83;27371;-59
2022/10/06 06:04:09;;;;;;;7.47;4.15;;;;;;;11.59;82.55;99456.38;1721786;83;25528;-58
2022/10/06 06:06:45;;;;;;;6.90;4.20;;;;;;;11.70;82.35;99466.63;1723833;82;25587;-57
2022/10/06 06:09:20;;;;;;;6.08;4.00;;;;;;;11.82;82.40;99476.58;1723348;83;25845;-56
2022/10/06 06:11:49;;;;;;;8.25;4.30;;;;;;;11.96;82.39;99479.91;1723485;83;25613;-56
2022/10/06 06:15:59;;;;;;;8.73;3.92;;;;;;;12.09;82.03;99476.39;1723472;83;27599;-56
2022/10/06 06:16:48;;;;;;;6.47;3.10;;;;;;;12.22;81.74;99471.21;1719664;83;25780;-56
2022/10/06 06:19:14;;;;;;;5.03;3.12;;;;;;;12.37;80.77;99467.34;1723270;83;25476;-58
2022/10/06 06:21:41;;;;;;;8.93;3.47;;;;;;;12.50;80.57;99461.05;1723134;82;25790;-56
2022/10/06 06:24:07;;;;;;;5.50;3.40;;;;;;;12.67;80.12;99465.89;1723215;83;25578;-56
2022/10/06 06:26:36;;;;;;;6.47;3.45;;;;;;;12.83;80.36;99471.06;1723114;82;27374;-57
2022/10/06 06:29:04;;;;;;;5.00;3.22;;;;;;;12.98;80.03;99486.41;1723280;83;25879;-56
2022/10/06 06:31:34;;;;;;;8.68;3.85;;;;;;;13.17;79.59;99489.57;1723231;83;25429;-56
2022/10/06 06:34:03;;;;;;;5.30;3.62;;;;;;;13.29;79.56;99498.65;1723718;83;26341;-56
2022/10/06 06:36:43;;;;;;;6.47;3.72;;;;;;;13.43;78.82;99499.43;1723435;82;25421;-59
2022/10/06 06:39:13;;;;;;;7.85;3.62;;;;;;;13.54;78.67;99504.16;1723193;83;25871;-62
2022/10/06 06:41:46;;;;;;;12.63;4.45;;;;;;;13.60;78.58;99506.22;1723319;83;25633;-56
2022/10/06 06:44:13;;;;;;;5.97;3.85;;;;;;;13.65;78.25;99506.66;1723428;82;25433;-57
2022/10/06 06:46:49;;;;;;;4.60;3.70;;;;;;;13.64;77.74;99507.20;1722978;82;27769;-59
2022/10/06 06:49:13;;;;;;;11.22;5.12;;;;;;;13.64;77.64;99509.95;1721783;83;25601;-62
2022/10/06 06:51:42;;;;;;;8.45;4.30;;;;;;;13.63;76.59;99504.77;1723218;83;27383;-59
2022/10/06 06:54:11;;;;;;;8.10;4.47;;;;;;;13.70;76.93;99509.84;1723732;83;25857;-57
2022/10/06 06:56:38;;;;;;;8.45;3.27;;;;;;;13.83;77.52;99509.51;1723484;83;25577;-59
2022/10/06 06:59:07;;;;;;;6.30;3.55;;;;;;;13.91;76.32;99517.81;1723161;83;25813;-57
2022/10/06 07:01:34;;;;;;;6.37;3.55;;;;;;;14.05;76.33;99517.73;1723085;81;25632;-56
2022/10/06 07:04:00;;;;;;;6.92;3.75;;;;;;;14.26;76.30;99531.55;1723345;82;28163;-59
2022/10/06 07:06:30;;;;;;;8.38;3.70;;;;;;;14.40;75.38;99528.11;1722949;83;25689;-57
2022/10/06 07:09:04;;;;;;;6.05;3.47;;;;;;;14.54;75.90;99534.11;1723501;82;25622;-57
2022/10/06 07:11:34;;;;;;;7.37;3.72;;;;;;;14.68;74.86;99530.66;1723374;83;26728;-56
2022/10/06 07:14:04;;;;;;;10.07;3.27;;;;;;;14.85;74.62;99538.76;1723554;83;25614;-57
2022/10/06 07:25:06;;;;;;;5.97;3.77;;;;;;;15.41;73.08;99557.53;1723047;83;25640;-57
2022/10/06 07:27:42;;;;;;;8.50;3.75;;;;;;;15.59;71.94;99548.41;1723034;83;25492;-57
2022/10/06 07:30:16;;;;;;;7.42;4.12;;;;;;;15.75;72.59;99547.35;1723106;83;27539;-58
2022/10/06 07:32:41;;;;;;;6.70;4.10;;;;;;;15.98;72.98;99554.09;1722536;83;25619;-59
2022/10/06 07:35:08;;;;;;;6.20;3.77;;;;;;;16.16;71.87;99559.83;1723406;82;25589;-58
2022/10/06 07:37:35;;;;;;;5.50;3.45;;;;;;;16.31;71.12;99542.45;1723519;83;25629;-58
2022/10/06 07:40:04;;;;;;;4.60;3.50;;;;;;;16.49;70.43;99558.41;1723473;82;25633;-58
2022/10/06 07:42:46;;;;;;;6.45;4.05;;;;;;;16.70;68.94;99565.16;1723311;83;27376;-58
2022/10/06 07:47:44;;;;;;;11.88;4.00;;;;;;;17.22;70.03;99561.88;1694110;84;25419;-57
2022/10/06 07:50:11;;;;;;;6.67;3.80;;;;;;;17.57;68.67;99565.77;1693989;84;25799;-58
2022/10/06 07:52:38;;;;;;;7.15;4.95;;;;;;;17.81;68.80;99558.70;1694292;84;25630;-57
2022/10/06 07:55:05;;;;;;;10.35;3.90;;;;;;;18.06;66.97;99566.55;1694186;84;28344;-57
2022/10/06 07:57:34;;;;;;;4.80;3.87;;;;;;;18.33;65.92;99568.25;1694210;84;25682;-57
2022/10/06 08:00:04;;;;;;;6.95;4.40;;;;;;;18.56;63.43;99576.94;1695610;83;25604;-57
2022/10/06 08:02:30;;;;;;;9.58;4.12;;;;;;;18.66;64.26;99575.69;1701663;84;25469;-59
2022/10/06 08:04:57;;;;;;;6.55;3.87;;;;;;;18.87;63.80;99577.53;1701695;84;25611;-58
2022/10/06 08:07:23;;;;;;;4.80;3.52;;;;;;;19.11;62.19;99574.55;1701690;84;27665;-58
2022/10/06 08:09:50;;;;;;;8.25;4.25;;;;;;;19.42;63.97;99581.42;1702016;84;25618;-57
2022/10/06 08:12:31;;;;;;;8.48;3.65;;;;;;;19.67;62.60;99583.56;1701551;84;25698;-56
2022/10/06 08:15:01;;;;;;;5.35;3.50;;;;;;;19.84;62.30;99585.81;1701618;84;26352;-56
2022/10/06 08:17:26;;;;;;;5.40;3.58;;;;;;;20.11;59.75;99590.92;1701635;84;25620;-57
2022/10/06 08:19:53;;;;;;;8.18;3.45;;;;;;;20.40;61.21;99586.93;1701576;84;27489;-59
2022/10/06 08:22:21;;;;;;;6.30;3.50;;;;;;;20.51;58.09;99580.25;1701439;84;25513;-58
2022/10/06 08:24:48;;;;;;;6.15;3.62;;;;;;;20.71;56.95;99588.69;1701695;84;25622;-58
2022/10/06 08:27:14;;;;;;;7.42;4.08;;;;;;;20.75;57.60;99588.79;1701854;84;25804;-56
2022/10/06 08:29:41;;;;;;;6.62;4.05;;;;;;;20.64;56.81;99585.73;1701599;84;25470;-57
2022/10/06 08:32:07;;;;;;;9.65;4.00;;;;;;;20.62;57.83;99597.81;1701393;84;27804;-58
2022/10/06 08:34:35;;;;;;;5.67;3.22;;;;;;;20.68;57.24;99597.77;1702088;84;25421;-57
2022/10/06 08:37:02;;;;;;;4.28;3.60;;;;;;;20.61;57.79;99605.34;1701890;84;25421;-58
2022/10/06 08:39:32;;;;;;;6.85;3.42;;;;;;;20.67;56.75;99600.34;1701740;84;25826;-57
2022/10/06 08:41:58;;;;;;;4.90;3.65;;;;;;;20.72;57.74;99604.22;1701670;84;25425;-57
2022/10/06 08:44:41;;;;;;;9.30;4.95;;;;;;;20.91;56.38;99613.29;1701963;84;28054;-60
2022/10/06 08:47:21;;;;;;;5.45;3.52;;;;;;;21.06;55.93;99614.44;1701841;84;25894;-57
2022/10/06 08:49:51;;;;;;;5.28;3.98;;;;;;;21.41;55.95;99611.43;1701770;84;25425;-57
2022/10/06 08:52:53;;;;;;;5.03;3.77;;;;;;;21.82;55.14;99615.91;1702084;84;26356;-59
2022/10/06 08:55:30;;;;;;;6.42;3.65;;;;;;;22.10;54.39;99614.06;1701642;84;25626;-57
2022/10/06 08:58:29;;;;;;;5.30;3.20;;;;;;;22.51;54.22;99615.79;1701627;84;27442;-58
2022/10/06 09:01:22;;;;;;;6.75;3.50;;;;;;;22.94;50.84;99612.13;1697917;83;25783;-58
2022/10/06 09:03:52;;;;;;;4.72;3.37;;;;;;;22.99;51.44;99623.58;1694345;84;25489;-58
2022/10/06 09:06:47;;;;;;;3.30;2.83;;;;;;;23.07;51.03;99618.33;1694278;84;25792;-57
2022/10/06 09:09:25;;;;;;;7.42;3.35;;;;;;;23.38;51.02;99615.61;1694221;84;25647;-58
2022/10/06 09:12:00;;;;;;;3.87;2.90;;;;;;;23.86;50.22;99615.63;1694027;84;28222;-57
2022/10/06 09:14:38;;;;;;;5.17;3.30;;;;;;;24.19;49.70;99609.83;1692119;84;25616;-59
2022/10/06 09:17:09;;;;;;;5.67;3.22;;;;;;;24.53;47.84;99612.55;1694678;84;25580;-57
2022/10/06 09:19:46;;;;;;;5.17;3.33;;;;;;;24.60;48.07;99616.02;1694431;84;26680;-58
2022/10/06 09:22:20;;;;;;;11.73;6.47;;;;;;;24.84;47.44;99623.62;1693400;84;25718;-61
2022/10/06 09:24:52;;;;;;;5.25;3.40;;;;;;;25.11;47.35;99625.45;1694117;84;27454;-58
2022/10/06 09:27:31;;;;;;;5.03;3.05;;;;;;;25.24;47.17;99620.34;1694116;83;25478;-61
2022/10/06 09:29:58;;;;;;;7.87;3.30;;;;;;;25.46;47.02;99614.25;1693734;84;25458;-58
2022/10/06 09:32:27;;;;;;;4.85;2.98;;;;;;;25.84;46.77;99613.27;1694237;84;25698;-58
2022/10/06 09:34:58;;;;;;;4.58;3.02;;;;;;;26.01;46.75;99622.34;1694692;84;25675;-59
2022/10/06 09:37:26;;;;;;;7.33;3.00;;;;;;;26.35;47.12;99635.30;1694557;84;28139;-59
2022/10/06 09:39:54;;;;;;;5.12;2.90;;;;;;;26.45;46.18;99633.69;1694450;84;25498;-58
2022/10/06 09:42:34;;;;;;;4.17;3.10;;;;;;;26.68;45.85;99636.72;1694501;84;25624;-59
2022/10/06 09:45:06;;;;;;;4.85;2.87;;;;;;;27.00;45.76;99636.57;1694245;84;25807;-59
2022/10/06 09:47:44;;;;;;;6.45;3.37;;;;;;;27.26;42.58;99645.78;1694235;84;25584;-59
2022/10/06 09:50:24;;;;;;;5.25;3.00;;;;;;;27.38;43.01;99647.36;1694529;84;27502;-58
2022/10/06 09:53:04;;;;;;;5.37;3.08;;;;;;;27.49;44.01;99649.53;1693524;84;25573;-58
2022/10/06 09:55:41;;;;;;;6.35;3.17;;;;;;;27.67;43.58;99652.35;1694661;84;25614;-58
2022/10/06 09:58:36;;;;;;;6.12;3.12;;;;;;;27.77;43.39;99656.92;1694416;84;25771;-59
2022/10/06 10:01:13;;;;;;;4.78;2.70;;;;;;;27.86;43.08;99650.25;1700244;83;25896;-58
2022/10/06 10:03:49;;;;;;;4.33;3.08;;;;;;;28.00;41.37;99651.42;1710221;83;27592;-59
2022/10/06 10:06:30;;;;;;;4.85;2.60;;;;;;;28.20;42.39;99651.70;1710297;83;25469;-60
2022/10/06 10:09:20;;;;;;;5.00;3.10;;;;;;;28.54;40.52;99645.48;1710667;83;25615;-58
2022/10/06 10:12:30;;;;;;;4.28;3.00;;;;;;;28.82;41.85;99649.91;1706173;83;25760;-59
2022/10/06 10:14:58;;;;;;;5.72;2.80;;;;;;;28.92;40.16;99648.20;1708300;83;25517;-58
2022/10/06 10:17:48;;;;;;;11.75;4.35;;;;;;;28.97;39.99;99654.84;1710689;83;27435;-58
2022/10/06 10:20:54;;;;;;;6.20;4.40;;;;;;;29.09;38.43;99646.48;1710886;83;25473;-58
2022/10/06 10:23:32;;;;;;;3.25;2.67;;;;;;;29.12;40.22;99656.12;1710321;83;25481;-58
2022/10/06 10:26:06;;;;;;;3.80;2.62;;;;;;;28.93;37.17;99656.88;1710263;83;26887;-58
2022/10/06 10:28:50;;;;;;;5.72;2.75;;;;;;;28.93;38.74;99652.65;1735014;82;25380;-58
2022/10/06 10:31:25;;;;;;;3.40;2.47;;;;;;;29.01;39.79;99651.37;1739020;82;27369;-57
2022/10/06 10:34:27;;;;;;;5.90;3.47;;;;;;;28.84;39.02;99653.73;1709967;83;25610;-58
2022/10/06 10:37:03;;;;;;;3.77;2.27;;;;;;;28.76;37.53;99655.80;1683367;84;25818;-58
2022/10/06 10:39:39;;;;;;;5.95;2.98;;;;;;;28.90;39.83;99668.37;1683308;85;25685;-58
2022/10/06 10:42:33;;;;;;;3.15;2.40;;;;;;;29.23;38.05;99663.08;1681505;85;25704;-57
2022/10/06 10:45:03;;;;;;;4.95;2.37;;;;;;;29.15;37.50;99659.52;1625272;88;27484;-56
2022/10/06 10:47:50;;;;;;;4.00;2.75;;;;;;;29.24;38.53;99664.06;1620239;88;25711;-58
2022/10/06 10:50:45;;;;;;;3.40;2.37;;;;;;;29.23;38.39;99663.88;1604855;88;25684;-57
2022/10/06 10:53:32;;;;;;;4.15;2.10;;;;;;;29.37;38.99;99672.02;1599363;89;25834;-57
2022/10/06 10:55:59;;;;;;;4.53;2.35;;;;;;;29.63;38.40;99676.81;1625657;88;26462;-56
2022/10/06 10:58:38;;;;;;;2.87;2.20;;;;;;;30.05;37.07;99677.52;1625571;88;26840;-57
2022/10/06 11:01:28;;;;;;;3.87;2.00;;;;;;;30.18;37.48;99680.62;1623593;87;25779;-57
2022/10/06 11:03:56;;;;;;;2.83;2.12;;;;;;;29.71;37.78;99681.17;1617501;88;25550;-58
2022/10/06 11:06:43;;;;;;;4.80;2.70;;;;;;;30.05;36.55;99679.56;1617958;88;25846;-57
2022/10/06 11:09:15;;;;;;;4.80;2.60;;;;;;;30.21;37.96;99667.66;1617711;88;25578;-57
2022/10/06 11:12:31;;;;;;;4.03;2.30;;;;;;;30.52;37.08;99677.52;1617806;88;28209;-57
2022/10/06 11:15:11;;;;;;;5.20;2.50;;;;;;;30.93;37.12;99680.55;1602268;88;25874;-58
2022/10/06 11:18:01;;;;;;;3.67;2.30;;;;;;;31.45;35.77;99680.50;1602851;89;25632;-57
2022/10/06 11:21:02;;;;;;;4.28;2.30;;;;;;;31.45;34.51;99683.33;1606828;84;25891;-57
2022/10/06 11:23:43;;;;;;;5.22;2.92;;;;;;;30.87;36.18;99684.48;1691234;84;25459;-57
2022/10/06 11:26:26;;;;;;;4.30;2.80;;;;;;;30.30;36.12;99686.31;1707283;83;27456;-59
2022/10/06 11:29:27;;;;;;;4.85;2.58;;;;;;;29.58;37.94;99681.53;1719447;83;25902;-57
2022/10/06 11:32:26;;;;;;;5.25;2.30;;;;;;;29.44;38.51;99684.64;1720151;83;25659;-57
2022/10/06 11:34:53;;;;;;;5.70;2.52;;;;;;;29.04;38.94;99682.21;1720406;83;25693;-57
2022/10/06 11:37:47;;;;;;;4.72;2.70;;;;;;;28.56;39.42;99687.36;1720105;83;25706;-58
2022/10/06 11:40:50;;;;;;;3.52;2.40;;;;;;;28.04;40.55;99688.20;1720347;83;27432;-57
2022/10/06 11:43:59;;;;;;;5.15;2.30;;;;;;;27.71;40.66;99684.70;1720285;83;25413;-57
2022/10/06 11:46:43;;;;;;;3.37;2.42;;;;;;;27.12;42.11;99692.42;1719563;83;25436;-57
2022/10/06 11:49:45;;;;;;;4.20;2.22;;;;;;;26.39;42.98;99698.53;1719619;83;26494;-57
2022/10/06 11:52:22;;;;;;;5.72;2.62;;;;;;;25.98;43.90;99688.30;1719717;83;25710;-58
2022/10/06 11:55:07;;;;;;;3.02;2.60;;;;;;;26.00;43.96;99684.51;1720349;83;28206;-58
2022/10/06 11:57:34;;;;;;;3.70;2.35;;;;;;;26.49;43.70;99682.30;1720292;83;25662;-57
2022/10/06 12:00:09;;;;;;;4.67;2.08;;;;;;;26.51;43.99;99689.70;1720153;83;25479;-57
2022/10/06 12:02:40;;;;;;;2.92;2.33;;;;;;;26.51;43.22;99693.92;1711329;83;27845;-58
2022/10/06 12:05:18;;;;;;;5.08;2.50;;;;;;;26.38;43.88;99701.13;1710595;83;25687;-58
2022/10/06 12:08:01;;;;;;;4.15;2.70;;;;;;;26.21;44.48;99696.42;1739986;82;27458;-58
2022/10/06 12:10:32;;;;;;;4.55;2.72;;;;;;;26.06;44.22;99695.57;1710617;83;25445;-57
2022/10/06 12:13:35;;;;;;;4.90;2.52;;;;;;;25.97;45.36;99696.53;1710673;83;25609;-57